sensor_id;sensor_type;location;lat;lon;timestamp;temperature;humidity
28087;DHT22;15392;48.912;8.380;2024-01-27T00:00:51;8.90;57.10
28087;DHT22;15392;48.912;8.380;2024-01-27T00:03:37;8.80;57.30
28087;DHT22;15392;48.912;8.380;2024-01-27T00:06:23;8.80;57.40
28087;DHT22;15392;48.912;8.380;2024-01-27T00:09:09;8.80;57.50
28087;DHT22;15392;48.912;8.380;2024-01-27T00:11:55;8.80;57.60
28087;DHT22;15392;48.912;8.380;2024-01-27T00:14:41;8.80;57.60
28087;DHT22;15392;48.912;8.380;2024-01-27T00:17:29;8.80;57.60
28087;DHT22;15392;48.912;8.380;2024-01-27T00:20:15;8.80;57.70
28087;DHT22;15392;48.912;8.380;2024-01-27T00:23:01;8.80;57.50
28087;DHT22;15392;48.912;8.380;2024-01-27T00:25:47;8.80;57.40
28087;DHT22;15392;48.912;8.380;2024-01-27T00:28:33;8.80;57.20
28087;DHT22;15392;48.912;8.380;2024-01-27T00:31:19;8.80;57.10
28087;DHT22;15392;48.912;8.380;2024-01-27T00:34:05;8.70;56.90
28087;DHT22;15392;48.912;8.380;2024-01-27T00:36:51;8.70;57.00
28087;DHT22;15392;48.912;8.380;2024-01-27T00:39:37;8.60;57.00
28087;DHT22;15392;48.912;8.380;2024-01-27T00:42:24;8.60;57.10
28087;DHT22;15392;48.912;8.380;2024-01-27T00:45:10;8.60;57.30
28087;DHT22;15392;48.912;8.380;2024-01-27T00:47:59;8.50;57.30
28087;DHT22;15392;48.912;8.380;2024-01-27T00:50:45;8.50;57.50
28087;DHT22;15392;48.912;8.380;2024-01-27T00:53:31;8.50;57.60
28087;DHT22;15392;48.912;8.380;2024-01-27T00:56:17;8.50;57.70
28087;DHT22;15392;48.912;8.380;2024-01-27T00:59:03;8.50;57.70
28087;DHT22;15392;48.912;8.380;2024-01-27T01:01:49;8.50;57.60
28087;DHT22;15392;48.912;8.380;2024-01-27T01:04:35;8.50;57.50
28087;DHT22;15392;48.912;8.380;2024-01-27T01:07:21;8.50;57.30
28087;DHT22;15392;48.912;8.380;2024-01-27T01:10:07;8.50;57.30
28087;DHT22;15392;48.912;8.380;2024-01-27T01:12:54;8.50;57.30
28087;DHT22;15392;48.912;8.380;2024-01-27T01:15:40;8.50;57.30
28087;DHT22;15392;48.912;8.380;2024-01-27T01:18:26;8.40;57.30
28087;DHT22;15392;48.912;8.380;2024-01-27T01:21:12;8.40;57.30
28087;DHT22;15392;48.912;8.380;2024-01-27T01:23:59;8.40;57.40
28087;DHT22;15392;48.912;8.380;2024-01-27T01:26:45;8.40;57.60
28087;DHT22;15392;48.912;8.380;2024-01-27T01:29:31;8.40;57.80
28087;DHT22;15392;48.912;8.380;2024-01-27T01:32:17;8.40;57.80
28087;DHT22;15392;48.912;8.380;2024-01-27T01:35:04;8.40;57.80
28087;DHT22;15392;48.912;8.380;2024-01-27T01:37:50;8.40;57.70
28087;DHT22;15392;48.912;8.380;2024-01-27T01:40:39;8.40;57.70
28087;DHT22;15392;48.912;8.380;2024-01-27T01:43:25;8.40;57.70
28087;DHT22;15392;48.912;8.380;2024-01-27T01:46:11;8.40;57.70
28087;DHT22;15392;48.912;8.380;2024-01-27T01:48:58;8.40;57.60
28087;DHT22;15392;48.912;8.380;2024-01-27T01:51:44;8.40;57.40
28087;DHT22;15392;48.912;8.380;2024-01-27T01:54:30;8.30;57.30
28087;DHT22;15392;48.912;8.380;2024-01-27T01:57:18;8.30;57.40
28087;DHT22;15392;48.912;8.380;2024-01-27T02:00:05;8.30;57.40
28087;DHT22;15392;48.912;8.380;2024-01-27T02:02:51;8.30;57.20
28087;DHT22;15392;48.912;8.380;2024-01-27T02:05:38;8.30;57.10
28087;DHT22;15392;48.912;8.380;2024-01-27T02:08:25;8.20;57.10
28087;DHT22;15392;48.912;8.380;2024-01-27T02:11:11;8.20;57.20
28087;DHT22;15392;48.912;8.380;2024-01-27T02:13:57;8.20;57.10
28087;DHT22;15392;48.912;8.380;2024-01-27T02:16:43;8.10;57.10
28087;DHT22;15392;48.912;8.380;2024-01-27T02:19:29;8.10;57.10
28087;DHT22;15392;48.912;8.380;2024-01-27T02:22:15;8.00;57.10
28087;DHT22;15392;48.912;8.380;2024-01-27T02:25:02;8.00;57.10
28087;DHT22;15392;48.912;8.380;2024-01-27T02:27:48;8.00;57.30
28087;DHT22;15392;48.912;8.380;2024-01-27T02:30:34;8.00;57.50
28087;DHT22;15392;48.912;8.380;2024-01-27T02:33:20;8.00;57.60
28087;DHT22;15392;48.912;8.380;2024-01-27T02:36:06;8.00;57.70
28087;DHT22;15392;48.912;8.380;2024-01-27T02:38:52;8.00;57.60
28087;DHT22;15392;48.912;8.380;2024-01-27T02:41:39;8.00;57.50
28087;DHT22;15392;48.912;8.380;2024-01-27T02:44:25;7.90;57.30
28087;DHT22;15392;48.912;8.380;2024-01-27T02:47:11;7.90;57.30
28087;DHT22;15392;48.912;8.380;2024-01-27T02:49:57;7.90;57.20
28087;DHT22;15392;48.912;8.380;2024-01-27T02:52:43;7.80;57.20
28087;DHT22;15392;48.912;8.380;2024-01-27T02:55:29;7.80;57.20
28087;DHT22;15392;48.912;8.380;2024-01-27T02:58:15;7.80;57.20
28087;DHT22;15392;48.912;8.380;2024-01-27T03:01:01;7.80;57.30
28087;DHT22;15392;48.912;8.380;2024-01-27T03:03:48;7.70;57.40
28087;DHT22;15392;48.912;8.380;2024-01-27T03:06:34;7.70;57.50
28087;DHT22;15392;48.912;8.380;2024-01-27T03:09:20;7.60;57.40
28087;DHT22;15392;48.912;8.380;2024-01-27T03:12:06;7.70;57.50
28087;DHT22;15392;48.912;8.380;2024-01-27T03:14:53;7.60;57.50
28087;DHT22;15392;48.912;8.380;2024-01-27T03:17:40;7.60;57.50
28087;DHT22;15392;48.912;8.380;2024-01-27T03:20:26;7.60;57.50
28087;DHT22;15392;48.912;8.380;2024-01-27T03:23:13;7.60;57.70
28087;DHT22;15392;48.912;8.380;2024-01-27T03:25:59;7.60;57.70
28087;DHT22;15392;48.912;8.380;2024-01-27T03:28:45;7.60;57.70
28087;DHT22;15392;48.912;8.380;2024-01-27T03:31:32;7.60;57.60
28087;DHT22;15392;48.912;8.380;2024-01-27T03:34:19;7.60;57.60
28087;DHT22;15392;48.912;8.380;2024-01-27T03:37:10;7.60;57.70
28087;DHT22;15392;48.912;8.380;2024-01-27T03:39:56;7.50;57.70
28087;DHT22;15392;48.912;8.380;2024-01-27T03:42:42;7.60;57.80
28087;DHT22;15392;48.912;8.380;2024-01-27T03:45:28;7.60;57.70
28087;DHT22;15392;48.912;8.380;2024-01-27T03:48:14;7.60;57.60
28087;DHT22;15392;48.912;8.380;2024-01-27T03:51:00;7.60;57.60
28087;DHT22;15392;48.912;8.380;2024-01-27T03:53:47;7.50;57.60
28087;DHT22;15392;48.912;8.380;2024-01-27T03:56:33;7.60;57.70
28087;DHT22;15392;48.912;8.380;2024-01-27T03:59:19;7.60;57.70
28087;DHT22;15392;48.912;8.380;2024-01-27T04:02:05;7.50;57.70
28087;DHT22;15392;48.912;8.380;2024-01-27T04:04:51;7.50;57.60
28087;DHT22;15392;48.912;8.380;2024-01-27T04:07:37;7.60;57.50
28087;DHT22;15392;48.912;8.380;2024-01-27T04:10:23;7.50;57.50
28087;DHT22;15392;48.912;8.380;2024-01-27T04:13:09;7.50;58.10
28087;DHT22;15392;48.912;8.380;2024-01-27T04:15:55;7.50;57.60
28087;DHT22;15392;48.912;8.380;2024-01-27T04:18:45;7.50;57.70
28087;DHT22;15392;48.912;8.380;2024-01-27T04:21:32;7.50;57.50
28087;DHT22;15392;48.912;8.380;2024-01-27T04:24:18;7.50;57.40
28087;DHT22;15392;48.912;8.380;2024-01-27T04:27:04;7.60;57.30
28087;DHT22;15392;48.912;8.380;2024-01-27T04:29:50;7.50;57.20
28087;DHT22;15392;48.912;8.380;2024-01-27T04:32:36;7.50;57.10
28087;DHT22;15392;48.912;8.380;2024-01-27T04:35:22;7.50;57.10
28087;DHT22;15392;48.912;8.380;2024-01-27T04:38:08;7.50;57.20
28087;DHT22;15392;48.912;8.380;2024-01-27T04:40:55;7.40;57.20
28087;DHT22;15392;48.912;8.380;2024-01-27T04:43:41;7.40;57.30
28087;DHT22;15392;48.912;8.380;2024-01-27T04:46:27;7.40;57.20
28087;DHT22;15392;48.912;8.380;2024-01-27T04:49:14;7.40;57.10
28087;DHT22;15392;48.912;8.380;2024-01-27T04:52:00;7.40;57.20
28087;DHT22;15392;48.912;8.380;2024-01-27T04:54:46;7.30;57.10
28087;DHT22;15392;48.912;8.380;2024-01-27T04:57:32;7.30;57.10
28087;DHT22;15392;48.912;8.380;2024-01-27T05:00:19;7.30;57.10
28087;DHT22;15392;48.912;8.380;2024-01-27T05:03:05;7.30;57.20
28087;DHT22;15392;48.912;8.380;2024-01-27T05:05:54;7.30;57.20
28087;DHT22;15392;48.912;8.380;2024-01-27T05:08:40;7.20;57.10
28087;DHT22;15392;48.912;8.380;2024-01-27T05:11:30;7.20;57.10
28087;DHT22;15392;48.912;8.380;2024-01-27T05:14:18;7.20;57.10
28087;DHT22;15392;48.912;8.380;2024-01-27T05:17:04;7.20;57.20
28087;DHT22;15392;48.912;8.380;2024-01-27T05:19:50;7.20;57.40
28087;DHT22;15392;48.912;8.380;2024-01-27T05:22:36;7.20;57.40
28087;DHT22;15392;48.912;8.380;2024-01-27T05:25:22;7.10;57.40
28087;DHT22;15392;48.912;8.380;2024-01-27T05:28:08;7.20;57.50
28087;DHT22;15392;48.912;8.380;2024-01-27T05:30:54;7.10;57.40
28087;DHT22;15392;48.912;8.380;2024-01-27T05:33:40;7.10;57.30
28087;DHT22;15392;48.912;8.380;2024-01-27T05:36:27;7.10;57.30
28087;DHT22;15392;48.912;8.380;2024-01-27T05:39:14;7.20;57.20
28087;DHT22;15392;48.912;8.380;2024-01-27T05:42:00;7.10;57.10
28087;DHT22;15392;48.912;8.380;2024-01-27T05:44:46;7.10;57.10
28087;DHT22;15392;48.912;8.380;2024-01-27T05:47:32;7.10;57.20
28087;DHT22;15392;48.912;8.380;2024-01-27T05:50:18;7.10;57.30
28087;DHT22;15392;48.912;8.380;2024-01-27T05:53:04;7.10;57.40
28087;DHT22;15392;48.912;8.380;2024-01-27T05:55:50;7.00;57.50
28087;DHT22;15392;48.912;8.380;2024-01-27T05:58:36;7.00;57.60
28087;DHT22;15392;48.912;8.380;2024-01-27T06:01:23;7.00;57.50
28087;DHT22;15392;48.912;8.380;2024-01-27T06:04:09;7.10;57.50
28087;DHT22;15392;48.912;8.380;2024-01-27T06:06:55;7.10;57.50
28087;DHT22;15392;48.912;8.380;2024-01-27T06:09:41;7.10;57.40
28087;DHT22;15392;48.912;8.380;2024-01-27T06:12:27;7.00;57.20
28087;DHT22;15392;48.912;8.380;2024-01-27T06:15:13;7.00;57.20
28087;DHT22;15392;48.912;8.380;2024-01-27T06:18:01;7.00;57.20
28087;DHT22;15392;48.912;8.380;2024-01-27T06:20:47;7.00;57.20
28087;DHT22;15392;48.912;8.380;2024-01-27T06:23:33;7.00;57.10
28087;DHT22;15392;48.912;8.380;2024-01-27T06:26:19;7.00;57.20
28087;DHT22;15392;48.912;8.380;2024-01-27T06:29:07;7.00;57.20
28087;DHT22;15392;48.912;8.380;2024-01-27T06:31:53;7.00;57.20
28087;DHT22;15392;48.912;8.380;2024-01-27T06:34:39;7.00;57.20
28087;DHT22;15392;48.912;8.380;2024-01-27T06:37:25;7.00;57.10
28087;DHT22;15392;48.912;8.380;2024-01-27T06:40:11;7.00;57.10
28087;DHT22;15392;48.912;8.380;2024-01-27T06:42:58;7.00;57.10
28087;DHT22;15392;48.912;8.380;2024-01-27T06:45:44;7.00;57.10
28087;DHT22;15392;48.912;8.380;2024-01-27T06:48:30;7.00;57.70
28087;DHT22;15392;48.912;8.380;2024-01-27T06:51:16;6.90;57.00
28087;DHT22;15392;48.912;8.380;2024-01-27T06:54:02;6.90;57.00
28087;DHT22;15392;48.912;8.380;2024-01-27T06:56:48;6.90;57.10
28087;DHT22;15392;48.912;8.380;2024-01-27T06:59:34;6.90;57.10
28087;DHT22;15392;48.912;8.380;2024-01-27T07:02:24;6.90;57.20
28087;DHT22;15392;48.912;8.380;2024-01-27T07:05:12;6.90;57.30
28087;DHT22;15392;48.912;8.380;2024-01-27T07:07:59;6.80;57.30
28087;DHT22;15392;48.912;8.380;2024-01-27T07:10:46;6.80;57.20
28087;DHT22;15392;48.912;8.380;2024-01-27T07:13:32;6.80;57.10
28087;DHT22;15392;48.912;8.380;2024-01-27T07:16:19;6.80;57.20
28087;DHT22;15392;48.912;8.380;2024-01-27T07:19:05;6.80;57.20
28087;DHT22;15392;48.912;8.380;2024-01-27T07:21:51;6.80;57.10
28087;DHT22;15392;48.912;8.380;2024-01-27T07:24:37;6.80;57.20
28087;DHT22;15392;48.912;8.380;2024-01-27T07:27:23;6.80;57.20
28087;DHT22;15392;48.912;8.380;2024-01-27T07:30:10;6.80;57.30
28087;DHT22;15392;48.912;8.380;2024-01-27T07:32:57;6.80;57.20
28087;DHT22;15392;48.912;8.380;2024-01-27T07:35:43;6.80;57.20
28087;DHT22;15392;48.912;8.380;2024-01-27T07:38:29;6.80;57.20
28087;DHT22;15392;48.912;8.380;2024-01-27T07:41:15;6.70;57.20
28087;DHT22;15392;48.912;8.380;2024-01-27T07:44:11;6.80;57.10
28087;DHT22;15392;48.912;8.380;2024-01-27T07:46:59;6.70;57.20
28087;DHT22;15392;48.912;8.380;2024-01-27T07:49:45;6.70;57.20
28087;DHT22;15392;48.912;8.380;2024-01-27T07:52:31;6.70;57.30
28087;DHT22;15392;48.912;8.380;2024-01-27T07:55:17;6.70;57.30
28087;DHT22;15392;48.912;8.380;2024-01-27T07:58:03;6.70;57.30
28087;DHT22;15392;48.912;8.380;2024-01-27T08:00:49;6.70;57.30
28087;DHT22;15392;48.912;8.380;2024-01-27T08:03:35;6.80;57.40
28087;DHT22;15392;48.912;8.380;2024-01-27T08:06:29;6.80;57.40
28087;DHT22;15392;48.912;8.380;2024-01-27T08:09:16;6.70;57.30
28087;DHT22;15392;48.912;8.380;2024-01-27T08:12:03;6.70;57.20
28087;DHT22;15392;48.912;8.380;2024-01-27T08:14:49;6.70;57.20
28087;DHT22;15392;48.912;8.380;2024-01-27T08:17:35;6.70;57.20
28087;DHT22;15392;48.912;8.380;2024-01-27T08:20:21;6.80;57.20
28087;DHT22;15392;48.912;8.380;2024-01-27T08:23:07;6.80;57.30
28087;DHT22;15392;48.912;8.380;2024-01-27T08:25:53;6.80;57.30
28087;DHT22;15392;48.912;8.380;2024-01-27T08:28:40;6.80;57.30
28087;DHT22;15392;48.912;8.380;2024-01-27T08:31:26;6.80;57.30
28087;DHT22;15392;48.912;8.380;2024-01-27T08:34:12;6.80;57.30
28087;DHT22;15392;48.912;8.380;2024-01-27T08:37:01;6.80;57.40
28087;DHT22;15392;48.912;8.380;2024-01-27T08:39:47;6.90;57.30
28087;DHT22;15392;48.912;8.380;2024-01-27T08:42:33;6.90;57.20
28087;DHT22;15392;48.912;8.380;2024-01-27T08:45:20;6.90;57.40
28087;DHT22;15392;48.912;8.380;2024-01-27T08:48:06;7.00;58.30
28087;DHT22;15392;48.912;8.380;2024-01-27T08:50:53;7.20;59.30
28087;DHT22;15392;48.912;8.380;2024-01-27T08:53:39;7.50;59.70
28087;DHT22;15392;48.912;8.380;2024-01-27T08:56:25;7.80;59.70
28087;DHT22;15392;48.912;8.380;2024-01-27T08:59:11;8.20;59.20
28087;DHT22;15392;48.912;8.380;2024-01-27T09:01:57;8.60;59.10
28087;DHT22;15392;48.912;8.380;2024-01-27T09:04:43;9.00;59.20
28087;DHT22;15392;48.912;8.380;2024-01-27T09:07:33;9.40;59.30
28087;DHT22;15392;48.912;8.380;2024-01-27T09:10:19;9.90;59.10
28087;DHT22;15392;48.912;8.380;2024-01-27T09:13:06;10.30;58.70
28087;DHT22;15392;48.912;8.380;2024-01-27T09:15:52;10.70;58.60
28087;DHT22;15392;48.912;8.380;2024-01-27T09:18:38;11.10;58.20
28087;DHT22;15392;48.912;8.380;2024-01-27T09:21:24;11.50;57.90
28087;DHT22;15392;48.912;8.380;2024-01-27T09:24:14;11.90;58.40
28087;DHT22;15392;48.912;8.380;2024-01-27T09:27:00;12.40;57.90
28087;DHT22;15392;48.912;8.380;2024-01-27T09:29:47;12.90;57.70
28087;DHT22;15392;48.912;8.380;2024-01-27T09:32:33;13.40;57.30
28087;DHT22;15392;48.912;8.380;2024-01-27T09:35:19;14.00;57.30
28087;DHT22;15392;48.912;8.380;2024-01-27T09:38:06;14.50;57.00
28087;DHT22;15392;48.912;8.380;2024-01-27T09:40:57;15.00;56.40
28087;DHT22;15392;48.912;8.380;2024-01-27T09:43:45;15.50;55.90
28087;DHT22;15392;48.912;8.380;2024-01-27T09:46:32;15.90;55.60
28087;DHT22;15392;48.912;8.380;2024-01-27T09:49:18;16.40;55.40
28087;DHT22;15392;48.912;8.380;2024-01-27T09:52:05;16.80;55.00
28087;DHT22;15392;48.912;8.380;2024-01-27T09:54:51;17.20;54.60
28087;DHT22;15392;48.912;8.380;2024-01-27T09:57:38;17.60;54.50
28087;DHT22;15392;48.912;8.380;2024-01-27T10:00:25;18.00;54.10
28087;DHT22;15392;48.912;8.380;2024-01-27T10:03:12;18.30;53.60
28087;DHT22;15392;48.912;8.380;2024-01-27T10:05:58;18.60;53.30
28087;DHT22;15392;48.912;8.380;2024-01-27T10:08:54;18.90;53.10
28087;DHT22;15392;48.912;8.380;2024-01-27T10:11:45;19.30;52.30
28087;DHT22;15392;48.912;8.380;2024-01-27T10:14:42;19.80;53.00
28087;DHT22;15392;48.912;8.380;2024-01-27T10:17:31;20.20;52.00
28087;DHT22;15392;48.912;8.380;2024-01-27T10:20:23;20.60;52.90
28087;DHT22;15392;48.912;8.380;2024-01-27T10:23:14;21.00;52.50
28087;DHT22;15392;48.912;8.380;2024-01-27T10:26:00;21.40;52.00
28087;DHT22;15392;48.912;8.380;2024-01-27T10:28:54;21.70;51.40
28087;DHT22;15392;48.912;8.380;2024-01-27T10:31:41;21.90;49.40
28087;DHT22;15392;48.912;8.380;2024-01-27T10:34:27;21.90;49.40
28087;DHT22;15392;48.912;8.380;2024-01-27T10:37:14;21.80;48.70
28087;DHT22;15392;48.912;8.380;2024-01-27T10:40:01;21.70;48.80
28087;DHT22;15392;48.912;8.380;2024-01-27T10:45:50;21.50;48.50
28087;DHT22;15392;48.912;8.380;2024-01-27T10:48:37;21.50;49.60
28087;DHT22;15392;48.912;8.380;2024-01-27T10:51:31;21.30;49.90
28087;DHT22;15392;48.912;8.380;2024-01-27T10:54:25;21.20;48.50
28087;DHT22;15392;48.912;8.380;2024-01-27T10:57:13;21.20;49.90
28087;DHT22;15392;48.912;8.380;2024-01-27T11:00:00;21.30;50.10
28087;DHT22;15392;48.912;8.380;2024-01-27T11:02:49;21.30;49.60
28087;DHT22;15392;48.912;8.380;2024-01-27T11:05:39;21.20;49.60
28087;DHT22;15392;48.912;8.380;2024-01-27T11:08:26;21.20;49.90
28087;DHT22;15392;48.912;8.380;2024-01-27T11:11:13;21.20;49.50
28087;DHT22;15392;48.912;8.380;2024-01-27T11:13:59;21.00;48.80
28087;DHT22;15392;48.912;8.380;2024-01-27T11:16:45;20.80;48.50
28087;DHT22;15392;48.912;8.380;2024-01-27T11:19:33;20.50;48.30
28087;DHT22;15392;48.912;8.380;2024-01-27T11:22:27;20.20;48.10
28087;DHT22;15392;48.912;8.380;2024-01-27T11:25:16;19.90;47.60
28087;DHT22;15392;48.912;8.380;2024-01-27T11:28:13;19.50;47.80
28087;DHT22;15392;48.912;8.380;2024-01-27T11:31:06;19.10;47.20
28087;DHT22;15392;48.912;8.380;2024-01-27T11:33:53;18.70;47.80
28087;DHT22;15392;48.912;8.380;2024-01-27T11:36:39;18.40;48.30
28087;DHT22;15392;48.912;8.380;2024-01-27T11:39:29;18.00;48.60
28087;DHT22;15392;48.912;8.380;2024-01-27T11:42:16;17.70;48.80
28087;DHT22;15392;48.912;8.380;2024-01-27T11:45:03;17.30;49.20
28087;DHT22;15392;48.912;8.380;2024-01-27T11:47:50;17.10;49.30
28087;DHT22;15392;48.912;8.380;2024-01-27T11:50:36;16.80;49.60
28087;DHT22;15392;48.912;8.380;2024-01-27T11:53:23;16.50;49.90
28087;DHT22;15392;48.912;8.380;2024-01-27T11:56:09;16.20;50.00
28087;DHT22;15392;48.912;8.380;2024-01-27T11:58:56;16.00;50.30
28087;DHT22;15392;48.912;8.380;2024-01-27T12:01:42;15.80;50.60
28087;DHT22;15392;48.912;8.380;2024-01-27T12:04:29;15.60;50.80
28087;DHT22;15392;48.912;8.380;2024-01-27T12:07:16;15.30;50.90
28087;DHT22;15392;48.912;8.380;2024-01-27T12:10:04;15.20;51.10
28087;DHT22;15392;48.912;8.380;2024-01-27T12:12:51;15.00;51.30
28087;DHT22;15392;48.912;8.380;2024-01-27T12:15:37;14.90;51.50
28087;DHT22;15392;48.912;8.380;2024-01-27T12:18:24;14.70;51.50
28087;DHT22;15392;48.912;8.380;2024-01-27T12:21:30;14.50;51.70
28087;DHT22;15392;48.912;8.380;2024-01-27T12:24:16;14.40;51.40
28087;DHT22;15392;48.912;8.380;2024-01-27T12:27:04;14.30;52.00
28087;DHT22;15392;48.912;8.380;2024-01-27T12:29:51;14.20;52.10
28087;DHT22;15392;48.912;8.380;2024-01-27T12:32:37;14.10;52.70
28087;DHT22;15392;48.912;8.380;2024-01-27T12:35:23;14.00;52.20
28087;DHT22;15392;48.912;8.380;2024-01-27T12:38:10;13.80;52.30
28087;DHT22;15392;48.912;8.380;2024-01-27T12:40:56;13.70;52.30
28087;DHT22;15392;48.912;8.380;2024-01-27T12:43:42;13.70;52.40
28087;DHT22;15392;48.912;8.380;2024-01-27T12:46:29;13.60;52.40
28087;DHT22;15392;48.912;8.380;2024-01-27T12:49:15;13.50;52.50
28087;DHT22;15392;48.912;8.380;2024-01-27T12:52:01;13.40;52.50
28087;DHT22;15392;48.912;8.380;2024-01-27T12:54:47;13.40;52.50
28087;DHT22;15392;48.912;8.380;2024-01-27T12:57:33;13.30;52.60
28087;DHT22;15392;48.912;8.380;2024-01-27T13:00:20;13.30;52.70
28087;DHT22;15392;48.912;8.380;2024-01-27T13:03:07;13.20;52.70
28087;DHT22;15392;48.912;8.380;2024-01-27T13:05:54;13.20;52.90
28087;DHT22;15392;48.912;8.380;2024-01-27T13:08:41;13.20;53.00
28087;DHT22;15392;48.912;8.380;2024-01-27T13:11:27;13.10;53.00
28087;DHT22;15392;48.912;8.380;2024-01-27T13:14:14;13.10;53.00
28087;DHT22;15392;48.912;8.380;2024-01-27T13:17:01;13.10;53.00
28087;DHT22;15392;48.912;8.380;2024-01-27T13:19:47;13.00;52.90
28087;DHT22;15392;48.912;8.380;2024-01-27T13:22:33;13.00;53.00
28087;DHT22;15392;48.912;8.380;2024-01-27T13:25:20;13.00;53.10
28087;DHT22;15392;48.912;8.380;2024-01-27T13:28:06;13.00;53.20
28087;DHT22;15392;48.912;8.380;2024-01-27T13:30:57;13.00;53.20
28087;DHT22;15392;48.912;8.380;2024-01-27T13:33:43;12.90;53.10
28087;DHT22;15392;48.912;8.380;2024-01-27T13:36:29;12.90;53.00
28087;DHT22;15392;48.912;8.380;2024-01-27T13:39:15;12.90;53.00
28087;DHT22;15392;48.912;8.380;2024-01-27T13:42:02;12.90;52.90
28087;DHT22;15392;48.912;8.380;2024-01-27T13:44:48;12.90;52.80
28087;DHT22;15392;48.912;8.380;2024-01-27T13:47:34;12.90;52.70
28087;DHT22;15392;48.912;8.380;2024-01-27T13:50:20;12.90;52.70
28087;DHT22;15392;48.912;8.380;2024-01-27T13:53:06;12.90;52.70
28087;DHT22;15392;48.912;8.380;2024-01-27T13:55:52;12.90;52.80
28087;DHT22;15392;48.912;8.380;2024-01-27T13:58:38;12.90;52.90
28087;DHT22;15392;48.912;8.380;2024-01-27T14:01:24;12.90;53.00
28087;DHT22;15392;48.912;8.380;2024-01-27T14:04:11;12.90;53.00
28087;DHT22;15392;48.912;8.380;2024-01-27T14:06:57;12.90;53.00
28087;DHT22;15392;48.912;8.380;2024-01-27T14:09:43;12.90;52.90
28087;DHT22;15392;48.912;8.380;2024-01-27T14:12:30;12.90;52.80
28087;DHT22;15392;48.912;8.380;2024-01-27T14:15:17;12.90;53.00
28087;DHT22;15392;48.912;8.380;2024-01-27T14:18:04;12.90;52.90
28087;DHT22;15392;48.912;8.380;2024-01-27T14:20:51;12.90;52.90
28087;DHT22;15392;48.912;8.380;2024-01-27T14:23:37;12.90;52.80
28087;DHT22;15392;48.912;8.380;2024-01-27T14:26:24;13.00;52.90
28087;DHT22;15392;48.912;8.380;2024-01-27T14:29:13;12.90;52.90
28087;DHT22;15392;48.912;8.380;2024-01-27T14:31:59;13.00;52.90
28087;DHT22;15392;48.912;8.380;2024-01-27T14:34:45;13.00;53.00
28087;DHT22;15392;48.912;8.380;2024-01-27T14:37:31;13.00;53.00
28087;DHT22;15392;48.912;8.380;2024-01-27T14:40:17;13.00;53.00
28087;DHT22;15392;48.912;8.380;2024-01-27T14:43:06;13.00;53.10
28087;DHT22;15392;48.912;8.380;2024-01-27T14:45:57;13.00;53.10
28087;DHT22;15392;48.912;8.380;2024-01-27T14:48:43;13.00;53.10
28087;DHT22;15392;48.912;8.380;2024-01-27T14:51:30;13.00;53.10
28087;DHT22;15392;48.912;8.380;2024-01-27T14:54:16;13.00;53.10
28087;DHT22;15392;48.912;8.380;2024-01-27T14:57:02;13.00;53.10
28087;DHT22;15392;48.912;8.380;2024-01-27T14:59:49;13.00;53.10
28087;DHT22;15392;48.912;8.380;2024-01-27T15:02:35;13.00;53.10
28087;DHT22;15392;48.912;8.380;2024-01-27T15:05:22;13.00;53.10
28087;DHT22;15392;48.912;8.380;2024-01-27T15:08:08;13.00;53.10
28087;DHT22;15392;48.912;8.380;2024-01-27T15:10:54;13.00;53.10
28087;DHT22;15392;48.912;8.380;2024-01-27T15:13:40;13.00;53.10
28087;DHT22;15392;48.912;8.380;2024-01-27T15:16:26;13.00;53.70
28087;DHT22;15392;48.912;8.380;2024-01-27T15:19:15;13.00;53.70
28087;DHT22;15392;48.912;8.380;2024-01-27T15:22:04;13.00;53.00
28087;DHT22;15392;48.912;8.380;2024-01-27T15:24:50;13.00;53.00
28087;DHT22;15392;48.912;8.380;2024-01-27T15:27:36;13.00;53.00
28087;DHT22;15392;48.912;8.380;2024-01-27T15:30:22;12.90;52.80
28087;DHT22;15392;48.912;8.380;2024-01-27T15:33:08;12.90;52.80
28087;DHT22;15392;48.912;8.380;2024-01-27T15:35:54;12.90;52.90
28087;DHT22;15392;48.912;8.380;2024-01-27T15:38:40;12.90;52.90
28087;DHT22;15392;48.912;8.380;2024-01-27T15:41:27;12.90;52.90
28087;DHT22;15392;48.912;8.380;2024-01-27T15:44:13;12.90;52.90
28087;DHT22;15392;48.912;8.380;2024-01-27T15:47:00;12.80;52.90
28087;DHT22;15392;48.912;8.380;2024-01-27T15:49:46;12.80;52.90
28087;DHT22;15392;48.912;8.380;2024-01-27T15:52:38;12.80;52.90
28087;DHT22;15392;48.912;8.380;2024-01-27T15:55:24;12.80;52.90
28087;DHT22;15392;48.912;8.380;2024-01-27T15:58:13;12.80;52.90
28087;DHT22;15392;48.912;8.380;2024-01-27T16:00:59;12.70;52.90
28087;DHT22;15392;48.912;8.380;2024-01-27T16:03:45;12.70;53.00
28087;DHT22;15392;48.912;8.380;2024-01-27T16:06:34;12.70;53.00
28087;DHT22;15392;48.912;8.380;2024-01-27T16:09:28;12.70;53.00
28087;DHT22;15392;48.912;8.380;2024-01-27T16:12:14;12.60;53.00
28087;DHT22;15392;48.912;8.380;2024-01-27T16:15:00;12.60;53.00
28087;DHT22;15392;48.912;8.380;2024-01-27T16:17:48;12.60;53.00
28087;DHT22;15392;48.912;8.380;2024-01-27T16:20:34;12.50;53.10
28087;DHT22;15392;48.912;8.380;2024-01-27T16:23:20;12.50;53.00
28087;DHT22;15392;48.912;8.380;2024-01-27T16:26:06;12.50;53.10
28087;DHT22;15392;48.912;8.380;2024-01-27T16:28:53;12.40;53.10
28087;DHT22;15392;48.912;8.380;2024-01-27T16:31:39;12.40;53.10
28087;DHT22;15392;48.912;8.380;2024-01-27T16:34:25;12.30;53.00
28087;DHT22;15392;48.912;8.380;2024-01-27T16:37:11;12.30;53.00
28087;DHT22;15392;48.912;8.380;2024-01-27T16:39:57;12.20;53.00
28087;DHT22;15392;48.912;8.380;2024-01-27T16:42:43;12.20;53.00
28087;DHT22;15392;48.912;8.380;2024-01-27T16:45:29;12.10;52.90
28087;DHT22;15392;48.912;8.380;2024-01-27T16:48:18;12.00;52.80
28087;DHT22;15392;48.912;8.380;2024-01-27T16:51:08;11.90;52.70
28087;DHT22;15392;48.912;8.380;2024-01-27T16:53:54;11.80;52.60
28087;DHT22;15392;48.912;8.380;2024-01-27T16:56:41;11.70;52.80
28087;DHT22;15392;48.912;8.380;2024-01-27T16:59:29;11.60;52.90
28087;DHT22;15392;48.912;8.380;2024-01-27T17:02:18;11.50;52.90
28087;DHT22;15392;48.912;8.380;2024-01-27T17:05:04;11.40;53.10
28087;DHT22;15392;48.912;8.380;2024-01-27T17:07:50;11.40;53.10
28087;DHT22;15392;48.912;8.380;2024-01-27T17:10:36;11.30;53.20
28087;DHT22;15392;48.912;8.380;2024-01-27T17:13:22;11.20;53.30
28087;DHT22;15392;48.912;8.380;2024-01-27T17:16:08;11.10;53.30
28087;DHT22;15392;48.912;8.380;2024-01-27T17:18:54;11.10;53.30
28087;DHT22;15392;48.912;8.380;2024-01-27T17:21:40;11.00;53.30
28087;DHT22;15392;48.912;8.380;2024-01-27T17:24:26;11.00;53.10
28087;DHT22;15392;48.912;8.380;2024-01-27T17:27:12;10.90;52.60
28087;DHT22;15392;48.912;8.380;2024-01-27T17:29:58;10.90;52.70
28087;DHT22;15392;48.912;8.380;2024-01-27T17:32:49;10.90;52.80
28087;DHT22;15392;48.912;8.380;2024-01-27T17:35:35;10.90;52.60
28087;DHT22;15392;48.912;8.380;2024-01-27T17:38:22;10.90;52.50
28087;DHT22;15392;48.912;8.380;2024-01-27T17:41:11;10.80;52.00
28087;DHT22;15392;48.912;8.380;2024-01-27T17:43:59;10.90;52.40
28087;DHT22;15392;48.912;8.380;2024-01-27T17:46:45;10.90;51.70